createdAt,value
2019-04-21T00:02:30.731Z,15.40
2019-04-21T00:05:06.064Z,15.60
2019-04-21T00:07:49.517Z,15.50
2019-04-21T00:10:16.817Z,15.40
2019-04-21T00:12:44.011Z,15.30
2019-04-21T00:15:06.130Z,15.40
2019-04-21T00:17:27.067Z,15.30
2019-04-21T00:20:09.239Z,15.30
2019-04-21T00:22:41.186Z,15.30
2019-04-21T00:25:16.342Z,15.10
2019-04-21T00:27:44.265Z,15.20
2019-04-21T00:30:19.894Z,15.00
2019-04-21T00:32:42.909Z,15.00
2019-04-21T00:35:04.673Z,15.10
2019-04-21T00:37:50.105Z,15.00
2019-04-21T00:40:22.278Z,15.00
2019-04-21T00:42:52.472Z,14.90
2019-04-21T00:45:16.809Z,14.80
2019-04-21T00:47:52.923Z,14.70
2019-04-21T00:50:25.655Z,14.60
2019-04-21T00:53:00.921Z,14.70
2019-04-21T00:55:42.975Z,14.60
2019-04-21T00:58:10.506Z,14.70
2019-04-21T01:00:32.537Z,14.70
2019-04-21T01:03:09.645Z,14.80
2019-04-21T01:05:42.278Z,14.50
2019-04-21T01:08:05.116Z,14.60
2019-04-21T01:10:28.756Z,14.60
2019-04-21T01:13:13.948Z,14.60
2019-04-21T01:15:43.943Z,14.40
2019-04-21T01:18:12.938Z,14.20
2019-04-21T01:20:18.212Z,14.10
2019-04-21T01:22:46.980Z,14.20
2019-04-21T01:25:22.948Z,14.30
2019-04-21T01:27:59.340Z,14.10
2019-04-21T01:30:34.543Z,14.30
2019-04-21T01:33:08.251Z,14.30
2019-04-21T01:35:40.253Z,14.30
2019-04-21T01:38:19.566Z,14.20
2019-04-21T01:40:41.115Z,14.10
2019-04-21T01:43:10.192Z,14.00
2019-04-21T01:45:37.037Z,14.10
2019-04-21T01:48:06.659Z,13.80
2019-04-21T01:50:42.870Z,14.00
2019-04-21T01:53:24.816Z,14.00
2019-04-21T01:56:11.683Z,13.90
2019-04-21T01:58:33.197Z,13.60
2019-04-21T02:01:10.109Z,13.80
2019-04-21T02:03:54.462Z,13.70
2019-04-21T02:06:18.244Z,13.90
2019-04-21T02:08:44.753Z,13.80
2019-04-21T02:11:17.678Z,13.50
2019-04-21T02:13:53.355Z,13.70
2019-04-21T02:16:19.024Z,13.60
2019-04-21T02:18:49.381Z,13.70
2019-04-21T02:21:14.801Z,13.60
2019-04-21T02:23:54.315Z,13.60
2019-04-21T02:26:22.653Z,13.60
2019-04-21T02:28:55.860Z,13.60
2019-04-21T02:31:40.485Z,13.60
2019-04-21T02:33:58.296Z,13.50
2019-04-21T02:36:40.371Z,13.30
2019-04-21T02:39:07.423Z,13.20
2019-04-21T02:41:32.993Z,13.20
2019-04-21T02:49:11.241Z,13.30
2019-04-21T02:51:39.632Z,13.20
2019-04-21T02:54:34.069Z,13.00
2019-04-21T02:56:39.548Z,13.20
2019-04-21T02:59:05.346Z,13.20
2019-04-21T03:01:43.939Z,13.00
2019-04-21T03:07:10.753Z,12.90
2019-04-21T03:17:05.123Z,13.00
2019-04-21T03:22:07.192Z,12.70
2019-04-21T03:25:00.580Z,12.60
2019-04-21T03:29:35.752Z,12.60
2019-04-21T03:35:14.983Z,12.80
2019-04-21T03:37:11.743Z,12.60
2019-04-21T03:39:45.483Z,12.50
2019-04-21T03:44:37.334Z,12.60
2019-04-21T03:52:15.090Z,12.40
2019-04-21T03:55:12.532Z,12.30
2019-04-21T03:57:46.739Z,12.50
2019-04-21T04:00:16.096Z,12.50
2019-04-21T04:02:45.620Z,12.50
2019-04-21T04:05:15.215Z,12.40
2019-04-21T04:07:49.692Z,12.30
2019-04-21T04:10:13.916Z,12.30
2019-04-21T04:15:12.155Z,12.10
2019-04-21T04:20:16.078Z,12.10
2019-04-21T04:25:13.388Z,12.20
2019-04-21T04:30:21.633Z,12.00
2019-04-21T04:32:56.637Z,12.10
2019-04-21T04:40:23.306Z,12.00
2019-04-21T04:43:05.143Z,12.00
2019-04-21T04:45:38.782Z,12.10
2019-04-21T04:48:10.860Z,12.00
2019-04-21T04:50:47.419Z,11.80
2019-04-21T04:52:56.974Z,11.90
2019-04-21T04:55:35.824Z,12.00
2019-04-21T04:58:16.004Z,12.00
2019-04-21T05:03:05.437Z,11.90
2019-04-21T05:06:25.772Z,12.00
2019-04-21T05:11:30.864Z,11.80
2019-04-21T05:13:51.429Z,11.80
2019-04-21T05:16:28.924Z,11.90
2019-04-21T05:18:56.321Z,11.90
2019-04-21T05:21:24.828Z,11.90
2019-04-21T05:23:41.329Z,11.90
2019-04-21T05:26:00.075Z,12.00
2019-04-21T05:28:35.589Z,12.00
2019-04-21T05:31:34.953Z,12.00
2019-04-21T05:34:04.773Z,12.00
2019-04-21T05:36:53.911Z,12.00
2019-04-21T05:39:21.512Z,11.90
2019-04-21T05:41:41.819Z,12.20
2019-04-21T05:44:30.965Z,12.10
2019-04-21T05:47:03.771Z,12.10
2019-04-21T05:49:30.649Z,12.10
2019-04-21T05:51:57.045Z,11.90
2019-04-21T05:54:39.623Z,12.10
2019-04-21T05:57:02.413Z,11.80
2019-04-21T05:59:33.937Z,12.00
2019-04-21T06:02:13.616Z,12.10
2019-04-21T06:04:57.910Z,11.90
2019-04-21T06:07:17.755Z,12.00
2019-04-21T06:09:45.481Z,12.00
2019-04-21T06:12:10.077Z,12.00
2019-04-21T06:14:46.813Z,12.10
2019-04-21T06:17:13.469Z,12.20
2019-04-21T06:19:43.776Z,12.30
2019-04-21T06:22:07.731Z,12.40
2019-04-21T06:24:54.247Z,12.40
2019-04-21T06:27:26.410Z,12.60
2019-04-21T06:29:43.908Z,12.60
2019-04-21T06:34:59.084Z,12.60
2019-04-21T06:37:35.956Z,12.60
2019-04-21T06:40:06.450Z,12.60
2019-04-21T06:42:09.739Z,12.70
2019-04-21T06:44:53.804Z,12.60
2019-04-21T06:47:26.529Z,12.70
2019-04-21T06:49:45.673Z,13.10
2019-04-21T06:52:29.880Z,13.10
2019-04-21T06:54:49.473Z,13.10
2019-04-21T06:57:16.948Z,13.10
2019-04-21T06:59:46.547Z,13.20
2019-04-21T07:02:30.580Z,13.30
2019-04-21T07:04:50.259Z,13.40
2019-04-21T07:07:16.247Z,13.50
2019-04-21T07:10:01.464Z,13.60
2019-04-21T07:12:12.525Z,13.50
2019-04-21T07:14:45.471Z,13.70
2019-04-21T07:17:20.211Z,13.90
2019-04-21T07:19:49.938Z,13.90
2019-04-21T07:22:17.779Z,14.10
2019-04-21T07:24:49.326Z,14.20
2019-04-21T07:27:17.476Z,14.30
2019-04-21T07:29:50.512Z,14.30
2019-04-21T07:32:18.368Z,14.50
2019-04-21T07:34:49.834Z,14.60
2019-04-21T07:37:20.888Z,14.70
2019-04-21T07:39:46.648Z,14.80
2019-04-21T07:42:13.676Z,15.00
2019-04-21T07:44:40.826Z,15.20
2019-04-21T07:47:22.785Z,15.40
2019-04-21T07:49:59.079Z,15.80
2019-04-21T07:52:37.814Z,15.90
2019-04-21T07:55:18.700Z,16.00
2019-04-21T07:57:31.563Z,16.00
2019-04-21T08:00:15.013Z,16.00
2019-04-21T08:02:34.056Z,16.10
2019-04-21T08:05:13.542Z,16.20
2019-04-21T08:07:44.995Z,16.20
2019-04-21T08:10:07.939Z,16.40
2019-04-21T08:12:30.606Z,16.30
2019-04-21T08:15:09.687Z,16.40
2019-04-21T08:17:38.300Z,16.60
2019-04-21T08:20:08.534Z,16.60
2019-04-21T08:22:41.255Z,16.70
2019-04-21T08:25:10.382Z,16.80
2019-04-21T08:27:54.000Z,16.80
2019-04-21T08:30:17.359Z,17.00
2019-04-21T08:35:34.592Z,17.30
2019-04-21T08:37:36.987Z,17.40
2019-04-21T08:40:15.766Z,17.40
2019-04-21T08:42:44.684Z,17.50
2019-04-21T08:45:15.051Z,17.70
2019-04-21T08:47:46.219Z,17.80
2019-04-21T08:50:15.163Z,18.00
2019-04-21T08:55:25.310Z,18.10
2019-04-21T09:00:55.133Z,18.30
2019-04-21T09:03:44.736Z,18.50
2019-04-21T09:06:17.489Z,18.60
2019-04-21T09:08:39.301Z,18.90
2019-04-21T09:11:06.941Z,18.90
2019-04-21T09:13:36.945Z,18.90
2019-04-21T09:16:11.145Z,19.10
2019-04-21T09:18:37.440Z,19.00
2019-04-21T09:21:14.280Z,19.00
2019-04-21T09:23:39.123Z,19.10
2019-04-21T09:26:13.827Z,19.20
2019-04-21T09:28:37.087Z,19.20
2019-04-21T09:30:57.761Z,19.30
2019-04-21T09:33:28.053Z,19.50
2019-04-21T09:35:59.279Z,19.70
2019-04-21T09:38:33.798Z,19.90
2019-04-21T09:40:54.846Z,20.00
2019-04-21T09:43:34.293Z,20.00
2019-04-21T09:45:54.396Z,20.10
2019-04-21T09:48:25.903Z,20.20
2019-04-21T09:50:53.159Z,20.30
2019-04-21T09:53:29.217Z,20.30
2019-04-21T09:55:58.164Z,20.50
2019-04-21T09:58:31.137Z,20.60
2019-04-21T10:01:05.080Z,20.70
2019-04-21T10:03:24.229Z,20.70
2019-04-21T10:05:54.092Z,20.70
2019-04-21T10:08:22.953Z,20.70
2019-04-21T10:10:52.066Z,21.10
2019-04-21T10:13:20.876Z,21.20
2019-04-21T10:15:51.962Z,21.30
2019-04-21T10:18:21.757Z,21.40
2019-04-21T10:20:51.262Z,21.40
2019-04-21T10:23:21.123Z,21.60
2019-04-21T10:25:50.544Z,21.70
2019-04-21T10:28:19.398Z,21.60
2019-04-21T10:30:50.839Z,22.00
2019-04-21T10:33:19.559Z,22.30
2019-04-21T10:35:50.790Z,22.40
2019-04-21T10:38:29.297Z,22.80
2019-04-21T10:40:49.808Z,25.80
2019-04-21T10:43:22.145Z,27.80
2019-04-21T10:45:50.625Z,28.60
2019-04-21T10:48:19.220Z,27.60
2019-04-21T10:50:47.746Z,28.10
2019-04-21T10:53:18.820Z,28.00
2019-04-21T10:56:00.526Z,27.90
2019-04-21T10:58:20.355Z,27.60
2019-04-21T11:00:51.566Z,28.10
2019-04-21T11:03:29.065Z,28.90
2019-04-21T11:06:00.919Z,27.50
2019-04-21T11:08:35.675Z,27.70
2019-04-21T11:11:01.528Z,29.30
2019-04-21T11:13:30.748Z,29.40
2019-04-21T11:15:59.429Z,29.30
2019-04-21T11:18:28.239Z,29.50
2019-04-21T11:20:56.875Z,28.30
2019-04-21T11:23:52.155Z,28.80
2019-04-21T11:26:19.895Z,27.30
2019-04-21T11:28:52.663Z,28.20
2019-04-21T11:31:22.815Z,29.70
2019-04-21T11:33:51.440Z,30.70
2019-04-21T11:36:21.494Z,29.80
2019-04-21T11:39:11.006Z,29.80
2019-04-21T11:41:27.983Z,29.90
2019-04-21T11:43:57.215Z,30.70
2019-04-21T11:46:26.784Z,29.80
2019-04-21T11:48:59.746Z,30.00
2019-04-21T11:51:28.982Z,30.20
2019-04-21T11:54:01.156Z,30.70
2019-04-21T11:56:30.508Z,30.70
2019-04-21T11:58:59.664Z,30.90
2019-04-21T12:01:29.660Z,31.00
2019-04-21T12:03:59.870Z,30.90
2019-04-21T12:06:33.501Z,31.70
2019-04-21T12:09:01.290Z,30.90
2019-04-21T12:11:29.616Z,30.70
2019-04-21T12:13:58.484Z,30.90
2019-04-21T12:16:27.116Z,30.50
2019-04-21T12:18:56.772Z,30.70
2019-04-21T12:21:28.335Z,29.80
2019-04-21T12:23:56.649Z,30.60
2019-04-21T12:26:26.383Z,31.40
2019-04-21T12:28:57.647Z,31.40
2019-04-21T12:31:31.743Z,31.30
2019-04-21T12:34:03.666Z,31.00
2019-04-21T12:36:32.210Z,30.70
2019-04-21T12:39:03.294Z,31.00
2019-04-21T12:41:30.999Z,30.70
2019-04-21T12:44:00.450Z,30.30
2019-04-21T12:46:29.871Z,31.00
2019-04-21T12:48:59.882Z,31.50
2019-04-21T12:51:28.460Z,30.10
2019-04-21T12:53:57.433Z,30.10
2019-04-21T12:56:27.413Z,30.70
2019-04-21T12:58:57.543Z,30.80
2019-04-21T13:01:27.401Z,30.30
2019-04-21T13:03:56.137Z,30.90
2019-04-21T13:06:25.923Z,31.90
2019-04-21T13:09:01.448Z,31.50
2019-04-21T13:11:25.508Z,31.30
2019-04-21T13:13:54.182Z,31.60
2019-04-21T13:16:23.371Z,31.50
2019-04-21T13:18:53.338Z,31.70
2019-04-21T13:21:22.431Z,32.50
2019-04-21T13:23:51.114Z,32.20
2019-04-21T13:26:31.989Z,29.40
2019-04-21T13:28:50.120Z,31.00
2019-04-21T13:31:18.677Z,31.80
2019-04-21T13:33:48.111Z,33.00
2019-04-21T13:36:18.149Z,32.70
2019-04-21T13:39:24.951Z,31.70
2019-04-21T13:41:42.827Z,30.40
2019-04-21T13:44:15.630Z,31.60
2019-04-21T13:46:45.205Z,32.20
2019-04-21T13:49:14.334Z,31.90
2019-04-21T13:51:43.994Z,31.60
2019-04-21T13:54:13.833Z,32.30
2019-04-21T13:57:02.783Z,32.30
2019-04-21T13:59:31.991Z,30.60
2019-04-21T14:02:02.707Z,32.10
2019-04-21T14:04:33.576Z,31.20
2019-04-21T14:07:06.029Z,30.30
2019-04-21T14:09:43.770Z,30.40
2019-04-21T14:12:05.399Z,30.90
2019-04-21T14:14:34.554Z,31.50
2019-04-21T14:17:05.343Z,31.90
2019-04-21T14:19:35.121Z,33.10
2019-04-21T14:22:03.672Z,32.20
2019-04-21T14:24:32.900Z,32.50
2019-04-21T14:27:02.684Z,32.40
2019-04-21T14:29:31.318Z,32.20
2019-04-21T14:32:00.138Z,32.20
2019-04-21T14:34:30.117Z,31.50
2019-04-21T14:36:58.951Z,31.70
2019-04-21T14:39:28.255Z,30.90
2019-04-21T14:41:58.011Z,31.30
2019-04-21T14:44:27.196Z,31.30
2019-04-21T14:46:57.481Z,32.00
2019-04-21T14:49:42.636Z,30.40
2019-04-21T14:52:12.987Z,29.90
2019-04-21T14:54:51.888Z,30.40
2019-04-21T14:57:21.205Z,31.60
2019-04-21T14:59:51.070Z,30.50
2019-04-21T15:02:20.265Z,30.50
2019-04-21T15:04:49.320Z,30.50
2019-04-21T15:07:18.974Z,31.40
2019-04-21T15:09:58.757Z,31.80
2019-04-21T15:12:18.266Z,31.40
2019-04-21T15:14:47.662Z,30.70
2019-04-21T15:17:19.553Z,30.40
2019-04-21T15:19:53.691Z,30.80
2019-04-21T15:22:16.860Z,30.30
2019-04-21T15:24:45.329Z,29.90
2019-04-21T15:27:14.683Z,30.10
2019-04-21T15:29:44.839Z,30.50
2019-04-21T15:32:14.762Z,30.80
2019-04-21T15:34:44.392Z,31.40
2019-04-21T15:37:13.724Z,30.60
2019-04-21T15:39:42.535Z,29.30
2019-04-21T15:42:12.526Z,29.40
2019-04-21T15:44:41.184Z,30.10
2019-04-21T15:47:10.257Z,30.40
2019-04-21T15:50:00.922Z,29.80
2019-04-21T15:52:25.751Z,29.50
2019-04-21T15:54:56.899Z,29.80
2019-04-21T15:57:33.471Z,30.20
2019-04-21T16:00:06.714Z,29.90
2019-04-21T16:02:40.383Z,30.40
2019-04-21T16:05:10.907Z,29.90
2019-04-21T16:07:40.313Z,30.30
2019-04-21T16:10:10.683Z,30.00
2019-04-21T16:12:40.167Z,29.80
2019-04-21T16:15:10.441Z,29.40
2019-04-21T16:17:39.361Z,29.00
2019-04-21T16:20:10.209Z,29.20
2019-04-21T16:22:38.939Z,29.00
2019-04-21T16:25:17.039Z,28.00
2019-04-21T16:27:45.617Z,26.70
2019-04-21T16:30:15.694Z,26.30
2019-04-21T16:32:45.983Z,26.70
2019-04-21T16:35:16.458Z,26.70
2019-04-21T16:37:45.819Z,26.60
2019-04-21T16:40:14.683Z,26.40
2019-04-21T16:42:43.280Z,26.20
2019-04-21T16:45:12.877Z,26.30
2019-04-21T16:47:44.264Z,26.40
2019-04-21T16:50:13.956Z,26.10
2019-04-21T16:52:48.000Z,25.90
2019-04-21T16:55:35.258Z,25.70
2019-04-21T16:58:14.552Z,25.80
2019-04-21T17:00:45.175Z,26.00
2019-04-21T17:03:10.825Z,26.20
2019-04-21T17:05:40.362Z,26.50
2019-04-21T17:08:11.035Z,25.90
2019-04-21T17:10:41.674Z,25.60
2019-04-21T17:13:09.943Z,25.60
2019-04-21T17:15:56.669Z,26.00
2019-04-21T17:18:24.533Z,25.90
2019-04-21T17:20:46.628Z,25.70
2019-04-21T17:23:11.741Z,25.40
2019-04-21T17:25:41.480Z,25.20
2019-04-21T17:28:10.065Z,24.90
2019-04-21T17:30:40.272Z,24.50
2019-04-21T17:33:18.186Z,24.50
2019-04-21T17:35:42.713Z,24.50
2019-04-21T17:38:12.086Z,24.40
2019-04-21T17:40:42.190Z,24.10
2019-04-21T17:43:14.760Z,23.80
2019-04-21T17:45:41.471Z,23.90
2019-04-21T17:48:13.913Z,24.10
2019-04-21T17:50:56.722Z,23.90
2019-04-21T17:53:42.942Z,23.90
2019-04-21T17:56:32.362Z,23.80
2019-04-21T17:58:56.792Z,23.70
2019-04-21T18:01:32.223Z,23.70
2019-04-21T18:04:05.287Z,23.60
2019-04-21T18:06:42.302Z,23.50
2019-04-21T18:09:18.878Z,23.30
2019-04-21T18:11:42.931Z,23.30
2019-04-21T18:13:51.492Z,23.10
2019-04-21T18:16:28.908Z,23.20
2019-04-21T18:18:50.769Z,23.10
2019-04-21T18:21:26.963Z,23.00
2019-04-21T18:24:07.413Z,22.90
2019-04-21T18:26:40.606Z,22.80
2019-04-21T18:29:03.484Z,22.60
2019-04-21T18:31:38.741Z,22.50
2019-04-21T18:34:20.231Z,22.50
2019-04-21T18:36:52.106Z,22.30
2019-04-21T18:39:38.183Z,22.10
2019-04-21T18:42:25.000Z,22.00
2019-04-21T18:45:22.019Z,22.10
2019-04-21T18:47:43.883Z,22.00
2019-04-21T18:49:58.415Z,21.80
2019-04-21T18:52:49.589Z,21.70
2019-04-21T18:55:18.942Z,21.50
2019-04-21T18:57:42.272Z,21.20
2019-04-21T19:00:15.374Z,21.20
2019-04-21T19:05:15.949Z,21.10
2019-04-21T19:08:03.153Z,20.90
2019-04-21T19:10:36.296Z,20.90
2019-04-21T19:15:28.182Z,20.80
2019-04-21T19:18:35.136Z,20.60
2019-04-21T19:20:29.836Z,20.60
2019-04-21T19:22:57.253Z,20.50
2019-04-21T19:25:36.520Z,20.50
2019-04-21T19:28:01.554Z,20.30
2019-04-21T19:33:06.917Z,20.20
2019-04-21T19:35:17.352Z,20.20
2019-04-21T19:37:56.413Z,20.10
2019-04-21T19:40:39.150Z,20.00
2019-04-21T19:42:57.778Z,19.90
2019-04-21T19:45:33.220Z,20.00
2019-04-21T19:48:08.145Z,20.00
2019-04-21T19:50:42.438Z,19.80
2019-04-21T19:52:57.726Z,19.80
2019-04-21T19:55:18.577Z,19.70
2019-04-21T19:57:47.153Z,19.60
2019-04-21T20:00:17.429Z,19.70
2019-04-21T20:02:46.448Z,19.50
2019-04-21T20:05:24.238Z,19.40
2019-04-21T20:08:03.640Z,19.30
2019-04-21T20:10:37.937Z,19.30
2019-04-21T20:13:07.214Z,19.20
2019-04-21T20:15:42.216Z,19.10
2019-04-21T20:18:00.277Z,19.00
2019-04-21T20:20:17.287Z,18.90
2019-04-21T20:22:51.810Z,19.00
2019-04-21T20:25:23.074Z,19.10
2019-04-21T20:28:00.776Z,19.00
2019-04-21T20:30:40.456Z,18.90
2019-04-21T20:33:31.869Z,18.80
2019-04-21T20:35:46.555Z,18.90
2019-04-21T20:38:08.374Z,18.90
2019-04-21T20:40:31.825Z,18.90
2019-04-21T20:43:11.453Z,18.70
2019-04-21T20:47:55.766Z,18.60
2019-04-21T20:50:33.442Z,18.60
2019-04-21T20:53:11.279Z,18.50
2019-04-21T20:55:35.502Z,18.40
2019-04-21T20:58:04.169Z,18.30
2019-04-21T21:00:49.099Z,18.40
2019-04-21T21:03:11.953Z,18.30
2019-04-21T21:05:39.861Z,18.20
2019-04-21T21:08:21.461Z,18.30
2019-04-21T21:10:41.459Z,18.20
2019-04-21T21:13:22.488Z,18.20
2019-04-21T21:15:51.360Z,18.00
2019-04-21T21:18:26.496Z,18.10
2019-04-21T21:20:49.784Z,18.10
2019-04-21T21:23:11.571Z,18.00
2019-04-21T21:26:07.048Z,18.00
2019-04-21T21:28:09.006Z,17.70
2019-04-21T21:30:41.520Z,17.90
2019-04-21T21:33:21.430Z,17.80
2019-04-21T21:35:43.790Z,17.80
2019-04-21T21:38:22.357Z,17.80
2019-04-21T21:40:48.999Z,17.80
2019-04-21T21:43:23.613Z,17.70
2019-04-21T21:45:55.697Z,17.60
2019-04-21T21:48:37.884Z,17.60
2019-04-21T21:51:02.265Z,17.50
2019-04-21T21:53:25.461Z,17.50
2019-04-21T21:55:53.031Z,17.50
2019-04-21T21:58:29.894Z,17.40
2019-04-21T22:00:58.509Z,17.50
2019-04-21T22:03:33.006Z,17.30
2019-04-21T22:06:01.906Z,17.20
2019-04-21T22:08:25.594Z,17.20
2019-04-21T22:10:54.996Z,17.20
2019-04-21T22:13:35.764Z,17.10
2019-04-21T22:15:56.459Z,17.00
2019-04-21T22:18:39.230Z,17.10
2019-04-21T22:21:09.121Z,17.00
2019-04-21T22:23:36.907Z,16.80
2019-04-21T22:25:55.479Z,16.80
2019-04-21T22:28:25.313Z,16.90
2019-04-21T22:30:55.168Z,16.90
2019-04-21T22:33:25.900Z,17.00
2019-04-21T22:36:02.684Z,16.90
2019-04-21T22:38:41.264Z,16.80
2019-04-21T22:41:09.592Z,16.80
2019-04-21T22:43:32.827Z,16.80
2019-04-21T22:45:55.895Z,16.70
2019-04-21T22:48:28.253Z,16.60
2019-04-21T22:50:54.675Z,16.40
2019-04-21T22:53:49.014Z,16.50
2019-04-21T22:56:23.631Z,16.50
2019-04-21T22:58:46.568Z,16.30
2019-04-21T23:01:17.782Z,16.30
2019-04-21T23:03:52.140Z,16.20
2019-04-21T23:06:22.056Z,16.10
2019-04-21T23:08:48.073Z,16.10
2019-04-21T23:11:18.118Z,16.30
2019-04-21T23:13:55.625Z,16.10
2019-04-21T23:16:21.466Z,16.10
2019-04-21T23:19:08.130Z,16.00
2019-04-21T23:21:30.485Z,15.80
2019-04-21T23:24:05.804Z,15.80
2019-04-21T23:26:37.689Z,15.80
2019-04-21T23:29:09.029Z,15.70
2019-04-21T23:31:40.202Z,15.90
2019-04-21T23:33:50.373Z,15.80
2019-04-21T23:36:24.170Z,15.80
2019-04-21T23:38:52.883Z,15.70
2019-04-21T23:41:19.498Z,15.70
2019-04-21T23:43:53.091Z,15.60
2019-04-21T23:46:25.772Z,15.50
2019-04-21T23:49:01.729Z,15.50
2019-04-21T23:51:33.303Z,15.40
2019-04-21T23:53:49.207Z,15.20
2019-04-21T23:56:25.590Z,15.30
2019-04-21T23:58:56.225Z,15.30
